Time;durP1;ratioP1;P1;durP2;ratioP2;P2;SDS_P1;SDS_P2;PMS_P1;PMS_P2;Temp;Humidity;BMP_temperature;BMP_pressure;BME280_temperature;BME280_humidity;BME280_pressure;Samples;Min_cycle;Max_cycle;Signal;HPM_P1;HPM_P2
2023/06/24 00:02:09;;;;;;;10.73;8.25;;;;;;;;;;4941990;28;20450;-71
2023/06/24 00:04:35;;;;;;;9.85;8.63;;;;;;;;;;4941331;28;20057;-71
2023/06/24 00:07:02;;;;;;;9.27;8.38;;;;;;;;;;4968579;28;20398;-71
2023/06/24 00:09:29;;;;;;;10.35;9.02;;;;;;;;;;4953704;28;20050;-71
2023/06/24 00:11:56;;;;;;;10.77;8.25;;;;;;;;;;5036403;28;20058;-72
2023/06/24 00:14:23;;;;;;;9.52;8.52;;;;;;;;;;5032478;28;20137;-71
2023/06/24 00:16:53;;;;;;;10.52;9.43;;;;;;;;;;5032934;28;20495;-71
2023/06/24 00:19:23;;;;;;;10.07;9.00;;;;;;;;;;4950774;28;20089;-72
2023/06/24 00:21:53;;;;;;;12.63;9.65;;;;;;;;;;4932252;28;20048;-72
2023/06/24 00:24:19;;;;;;;12.15;9.45;;;;;;;;;;4935166;28;20047;-72
2023/06/24 00:26:48;;;;;;;11.38;9.45;;;;;;;;;;4948959;28;20048;-72
2023/06/24 00:29:15;;;;;;;12.07;10.15;;;;;;;;;;5017284;28;20085;-72
2023/06/24 00:31:41;;;;;;;12.00;10.18;;;;;;;;;;5022168;28;20130;-72
2023/06/24 00:34:07;;;;;;;10.75;9.65;;;;;;;;;;5009464;28;20047;-71
2023/06/24 00:36:35;;;;;;;11.25;10.15;;;;;;;;;;4946528;28;20043;-72
2023/06/24 00:39:03;;;;;;;10.65;9.32;;;;;;;;;;5011254;28;20063;-71
2023/06/24 00:41:29;;;;;;;11.27;9.30;;;;;;;;;;4959810;28;20118;-71
2023/06/24 00:43:57;;;;;;;11.70;9.90;;;;;;;;;;4945310;29;20456;-71
2023/06/24 00:46:25;;;;;;;10.32;9.05;;;;;;;;;;5049011;28;20090;-71
2023/06/24 00:48:51;;;;;;;10.88;9.38;;;;;;;;;;4950291;28;20100;-72
2023/06/24 00:51:19;;;;;;;11.75;9.65;;;;;;;;;;4943391;28;20071;-71
2023/06/24 00:53:45;;;;;;;11.15;9.95;;;;;;;;;;5016460;28;20406;-71
2023/06/24 00:56:13;;;;;;;11.20;9.15;;;;;;;;;;5020936;28;20054;-71
2023/06/24 00:58:39;;;;;;;10.73;9.63;;;;;;;;;;4952183;28;20093;-71
2023/06/24 01:01:08;;;;;;;10.52;9.43;;;;;;;;;;5018318;28;20521;-71
2023/06/24 01:03:36;;;;;;;11.68;9.45;;;;;;;;;;4972094;28;20055;-71
2023/06/24 01:06:02;;;;;;;12.77;9.73;;;;;;;;;;5033399;28;20382;-71
2023/06/24 01:08:28;;;;;;;11.40;9.38;;;;;;;;;;5017570;28;20051;-71
2023/06/24 01:10:54;;;;;;;9.98;8.93;;;;;;;;;;4941831;28;20035;-72
2023/06/24 01:13:20;;;;;;;11.77;9.23;;;;;;;;;;5007315;28;20045;-72
2023/06/24 01:15:47;;;;;;;12.45;9.70;;;;;;;;;;4962507;28;20032;-71
2023/06/24 01:18:30;;;;;;;10.52;9.05;;;;;;;;;;5025272;28;20409;-71
2023/06/24 01:20:56;;;;;;;;;;;;;;;;;;4966546;28;20053;-72
2023/06/24 01:23:32;;;;;;;10.65;8.93;;;;;;;;;;5046904;28;19926;-72
2023/06/24 01:25:58;;;;;;;12.63;9.27;;;;;;;;;;4954314;28;20058;-71
2023/06/24 01:28:44;;;;;;;10.23;9.00;;;;;;;;;;5018593;28;20043;-71
2023/06/24 01:31:17;;;;;;;11.05;9.18;;;;;;;;;;4947401;28;20633;-71
2023/06/24 01:33:50;;;;;;;11.48;9.38;;;;;;;;;;4960194;28;20456;-71
2023/06/24 01:36:18;;;;;;;11.27;9.57;;;;;;;;;;5031399;28;20426;-71
2023/06/24 01:38:47;;;;;;;11.20;9.70;;;;;;;;;;5017414;28;20042;-71
2023/06/24 01:41:16;;;;;;;10.80;9.15;;;;;;;;;;5021136;28;20075;-71
2023/06/24 01:43:43;;;;;;;11.18;9.88;;;;;;;;;;4967084;28;20066;-72
2023/06/24 01:46:10;;;;;;;10.55;9.27;;;;;;;;;;4996226;28;20039;-71
2023/06/24 01:48:37;;;;;;;13.15;10.23;;;;;;;;;;4940769;28;20399;-71
2023/06/24 01:51:17;;;;;;;11.23;9.50;;;;;;;;;;4946519;28;20047;-71
2023/06/24 01:53:49;;;;;;;12.50;9.75;;;;;;;;;;4953917;28;20043;-72
2023/06/24 01:56:15;;;;;;;12.50;10.35;;;;;;;;;;4949295;28;20043;-71
2023/06/24 01:58:43;;;;;;;11.63;10.43;;;;;;;;;;5004622;28;20109;-72
2023/06/24 02:01:09;;;;;;;11.75;10.55;;;;;;;;;;4950126;28;20046;-71
2023/06/24 02:03:36;;;;;;;13.20;10.05;;;;;;;;;;5018335;28;20078;-71
2023/06/24 02:06:02;;;;;;;12.70;9.93;;;;;;;;;;4951078;28;20185;-71
2023/06/24 02:08:34;;;;;;;13.93;10.68;;;;;;;;;;4949518;28;20054;-71
2023/06/24 02:11:01;;;;;;;12.55;10.60;;;;;;;;;;5015284;28;20599;-72
2023/06/24 02:13:27;;;;;;;13.35;10.90;;;;;;;;;;4948629;28;20047;-71
2023/06/24 02:15:53;;;;;;;11.32;10.10;;;;;;;;;;4951429;28;20162;-72
2023/06/24 02:18:23;;;;;;;11.65;10.20;;;;;;;;;;4960666;28;20050;-71
2023/06/24 02:20:50;;;;;;;12.68;10.63;;;;;;;;;;4951293;28;20062;-71
2023/06/24 02:23:17;;;;;;;11.05;9.88;;;;;;;;;;4944775;28;20144;-71
2023/06/24 02:25:43;;;;;;;12.90;10.50;;;;;;;;;;4944761;28;20058;-71
2023/06/24 02:28:09;;;;;;;14.45;10.32;;;;;;;;;;5000981;28;20522;-71
2023/06/24 02:30:36;;;;;;;15.23;11.23;;;;;;;;;;5012485;28;20051;-71
2023/06/24 02:33:02;;;;;;;13.30;10.82;;;;;;;;;;4950552;28;20074;-71
2023/06/24 02:35:29;;;;;;;14.23;10.43;;;;;;;;;;5022097;28;20211;-71
2023/06/24 02:37:55;;;;;;;14.98;11.18;;;;;;;;;;5001033;28;20103;-71
2023/06/24 02:40:21;;;;;;;14.68;11.27;;;;;;;;;;4949602;28;20055;-71
2023/06/24 02:42:47;;;;;;;12.60;10.20;;;;;;;;;;4986460;28;20063;-71
2023/06/24 02:45:13;;;;;;;14.77;11.30;;;;;;;;;;4935931;28;20091;-71
2023/06/24 02:47:39;;;;;;;13.30;10.45;;;;;;;;;;4948592;28;20051;-71
2023/06/24 02:50:06;;;;;;;13.88;10.90;;;;;;;;;;4942350;28;20058;-71
2023/06/24 02:52:32;;;;;;;14.05;11.05;;;;;;;;;;4945352;28;20043;-72
2023/06/24 02:54:58;;;;;;;15.45;11.02;;;;;;;;;;5018528;28;20047;-71
2023/06/24 02:57:25;;;;;;;13.13;11.48;;;;;;;;;;5004765;28;20044;-71
2023/06/24 02:59:51;;;;;;;12.65;11.00;;;;;;;;;;4945955;28;20086;-71
2023/06/24 03:02:18;;;;;;;13.15;11.55;;;;;;;;;;5007992;28;20077;-71
2023/06/24 03:04:44;;;;;;;14.00;11.20;;;;;;;;;;4957042;28;20047;-71
2023/06/24 03:07:11;;;;;;;12.82;10.27;;;;;;;;;;5013754;28;20139;-71
2023/06/24 03:09:37;;;;;;;12.68;11.20;;;;;;;;;;4944998;28;20487;-71
2023/06/24 03:12:03;;;;;;;12.05;10.20;;;;;;;;;;4945450;28;20047;-71
2023/06/24 03:14:29;;;;;;;12.93;10.52;;;;;;;;;;4950585;28;20411;-70
2023/06/24 03:16:57;;;;;;;13.32;10.27;;;;;;;;;;4951934;28;20462;-71
2023/06/24 03:19:23;;;;;;;13.30;10.63;;;;;;;;;;5012018;28;20052;-71
2023/06/24 03:21:49;;;;;;;13.75;10.50;;;;;;;;;;5000147;28;20084;-71
2023/06/24 03:24:15;;;;;;;13.48;11.60;;;;;;;;;;4999903;28;20169;-71
2023/06/24 03:26:41;;;;;;;15.07;11.70;;;;;;;;;;4948373;28;20063;-72
2023/06/24 03:29:07;;;;;;;13.68;11.32;;;;;;;;;;5000919;28;20046;-71
2023/06/24 03:31:34;;;;;;;13.63;10.68;;;;;;;;;;5013113;28;20045;-71
2023/06/24 03:34:00;;;;;;;13.63;11.13;;;;;;;;;;5013722;28;20069;-71
2023/06/24 03:36:26;;;;;;;15.48;10.85;;;;;;;;;;4957052;28;20122;-71
2023/06/24 03:38:52;;;;;;;12.68;10.80;;;;;;;;;;4948136;28;20518;-71
2023/06/24 03:41:18;;;;;;;13.75;10.90;;;;;;;;;;4940654;28;20083;-71
2023/06/24 03:43:44;;;;;;;14.75;11.82;;;;;;;;;;4952098;28;20055;-71
2023/06/24 03:46:11;;;;;;;15.35;11.30;;;;;;;;;;4942123;28;20419;-71
2023/06/24 03:48:37;;;;;;;13.95;11.07;;;;;;;;;;4949299;28;20031;-71
2023/06/24 03:51:03;;;;;;;13.73;10.85;;;;;;;;;;4969562;28;20043;-71
2023/06/24 03:53:29;;;;;;;15.18;9.93;;;;;;;;;;4956157;28;20548;-71
2023/06/24 03:55:55;;;;;;;11.85;10.57;;;;;;;;;;4935725;28;20051;-71
2023/06/24 03:58:21;;;;;;;13.82;10.95;;;;;;;;;;4947206;28;20047;-71
2023/06/24 04:00:49;;;;;;;11.98;10.13;;;;;;;;;;5007548;28;20035;-71
2023/06/24 04:03:17;;;;;;;12.55;10.60;;;;;;;;;;4942922;28;20134;-71
2023/06/24 04:05:43;;;;;;;13.27;10.82;;;;;;;;;;4956605;28;20556;-72
2023/06/24 04:08:09;;;;;;;14.50;11.20;;;;;;;;;;4998878;28;20106;-71
2023/06/24 04:10:35;;;;;;;15.63;11.38;;;;;;;;;;4964685;28;20475;-71
2023/06/24 04:13:02;;;;;;;12.73;10.88;;;;;;;;;;4953990;28;20048;-73
2023/06/24 04:15:28;;;;;;;15.07;11.23;;;;;;;;;;4954198;28;20450;-71
2023/06/24 04:17:54;;;;;;;14.07;11.10;;;;;;;;;;4955603;28;20047;-72
2023/06/24 04:20:20;;;;;;;14.00;11.32;;;;;;;;;;5032708;28;20051;-71
2023/06/24 04:22:46;;;;;;;13.50;10.60;;;;;;;;;;4950521;28;20047;-72
2023/06/24 04:25:12;;;;;;;15.82;10.88;;;;;;;;;;4952908;28;20048;-72
2023/06/24 04:27:38;;;;;;;12.15;10.57;;;;;;;;;;4945534;28;20046;-72
2023/06/24 04:30:05;;;;;;;13.57;11.00;;;;;;;;;;4950929;28;20051;-71
2023/06/24 04:32:31;;;;;;;14.52;11.80;;;;;;;;;;5002549;28;20047;-71
2023/06/24 04:34:59;;;;;;;12.80;10.60;;;;;;;;;;4950167;28;20122;-71
2023/06/24 04:37:25;;;;;;;13.93;11.55;;;;;;;;;;5004652;28;20322;-71
2023/06/24 04:39:51;;;;;;;14.68;11.13;;;;;;;;;;4948522;29;20078;-72
2023/06/24 04:42:17;;;;;;;15.23;11.30;;;;;;;;;;5017680;28;20056;-72
2023/06/24 04:44:43;;;;;;;14.90;11.65;;;;;;;;;;4953836;28;20055;-72
2023/06/24 04:47:09;;;;;;;13.60;11.57;;;;;;;;;;4996728;28;20039;-71
2023/06/24 04:49:35;;;;;;;14.10;11.40;;;;;;;;;;4991218;28;20047;-71
2023/06/24 04:52:02;;;;;;;12.55;11.05;;;;;;;;;;4949169;28;20047;-72
2023/06/24 04:54:28;;;;;;;14.60;11.70;;;;;;;;;;4946780;28;20047;-71
2023/06/24 04:56:55;;;;;;;12.82;10.82;;;;;;;;;;4962899;28;20054;-72
2023/06/24 04:59:24;;;;;;;13.48;11.05;;;;;;;;;;4990403;28;20051;-71
2023/06/24 05:01:50;;;;;;;14.15;11.23;;;;;;;;;;4945686;28;20044;-72
2023/06/24 05:04:16;;;;;;;14.43;11.23;;;;;;;;;;4974925;28;20406;-71
2023/06/24 05:06:42;;;;;;;14.82;10.88;;;;;;;;;;4952405;28;20079;-72
2023/06/24 05:09:13;;;;;;;14.20;11.43;;;;;;;;;;5009313;28;20132;-71
2023/06/24 05:11:39;;;;;;;13.48;11.52;;;;;;;;;;5011895;28;20055;-72
2023/06/24 05:14:05;;;;;;;14.50;11.25;;;;;;;;;;4952275;29;20047;-72
2023/06/24 05:16:31;;;;;;;12.05;10.23;;;;;;;;;;4952067;28;20050;-72
2023/06/24 05:18:57;;;;;;;13.10;9.90;;;;;;;;;;4938430;28;20043;-71
2023/06/24 05:21:23;;;;;;;15.52;11.00;;;;;;;;;;4951249;28;20039;-71
2023/06/24 05:23:49;;;;;;;13.95;10.10;;;;;;;;;;4950826;28;20051;-71
2023/06/24 05:26:15;;;;;;;12.07;10.25;;;;;;;;;;4950424;28;20368;-72
2023/06/24 05:28:41;;;;;;;13.10;10.27;;;;;;;;;;5006036;28;20063;-72
2023/06/24 05:31:07;;;;;;;14.88;11.75;;;;;;;;;;4945807;28;20040;-71
2023/06/24 05:33:33;;;;;;;16.17;11.80;;;;;;;;;;4947137;28;20062;-71
2023/06/24 05:35:59;;;;;;;14.75;10.93;;;;;;;;;;4957663;28;20166;-71
2023/06/24 05:38:25;;;;;;;14.13;11.18;;;;;;;;;;4962683;28;20268;-71
2023/06/24 05:40:51;;;;;;;16.58;11.60;;;;;;;;;;4955820;28;20483;-72
2023/06/24 05:43:17;;;;;;;14.50;11.80;;;;;;;;;;4954575;28;20101;-71
2023/06/24 05:45:43;;;;;;;15.40;10.90;;;;;;;;;;4966298;28;20127;-72
2023/06/24 05:48:09;;;;;;;13.02;10.32;;;;;;;;;;5014328;28;20048;-71
2023/06/24 05:50:35;;;;;;;12.25;10.57;;;;;;;;;;5004448;28;20055;-72
2023/06/24 05:53:01;;;;;;;13.63;10.82;;;;;;;;;;4951750;28;20043;-72
2023/06/24 05:55:27;;;;;;;13.80;10.80;;;;;;;;;;4957655;28;20142;-71
2023/06/24 05:57:53;;;;;;;13.07;10.30;;;;;;;;;;5021252;28;21196;-72
2023/06/24 06:00:19;;;;;;;14.85;10.38;;;;;;;;;;4963173;28;20054;-71
2023/06/24 06:02:45;;;;;;;14.18;10.98;;;;;;;;;;4953810;28;20089;-72
2023/06/24 06:05:11;;;;;;;13.00;10.10;;;;;;;;;;5039118;28;20059;-72
2023/06/24 06:07:39;;;;;;;15.18;10.85;;;;;;;;;;4945594;28;20050;-72
2023/06/24 06:10:06;;;;;;;14.23;11.27;;;;;;;;;;4947648;28;20093;-72
2023/06/24 06:12:32;;;;;;;13.25;10.00;;;;;;;;;;4958249;28;20384;-71
2023/06/24 06:14:58;;;;;;;13.25;10.00;;;;;;;;;;5030684;28;20050;-72
2023/06/24 06:17:24;;;;;;;14.45;10.80;;;;;;;;;;4956932;28;20097;-71
2023/06/24 06:19:50;;;;;;;16.35;10.77;;;;;;;;;;4960374;28;20402;-72
2023/06/24 06:22:17;;;;;;;13.30;9.82;;;;;;;;;;4936243;28;20052;-71
2023/06/24 06:24:43;;;;;;;11.20;9.30;;;;;;;;;;4954579;28;20458;-72
2023/06/24 06:27:10;;;;;;;11.77;8.85;;;;;;;;;;5040143;28;20093;-71
2023/06/24 06:29:36;;;;;;;10.73;8.98;;;;;;;;;;4963313;28;20177;-71
2023/06/24 06:32:02;;;;;;;11.43;8.70;;;;;;;;;;5016165;28;20137;-72
2023/06/24 06:34:29;;;;;;;11.07;8.80;;;;;;;;;;4946099;28;20054;-71
2023/06/24 06:36:55;;;;;;;9.63;7.25;;;;;;;;;;5028224;28;20062;-71
2023/06/24 06:39:21;;;;;;;8.35;6.47;;;;;;;;;;4944147;28;20510;-72
2023/06/24 06:41:47;;;;;;;8.35;5.82;;;;;;;;;;5018931;28;20492;-72
2023/06/24 06:44:13;;;;;;;7.90;6.05;;;;;;;;;;4957767;28;20825;-71
2023/06/24 06:46:39;;;;;;;9.63;6.10;;;;;;;;;;5019158;28;20127;-71
2023/06/24 06:49:05;;;;;;;7.47;5.40;;;;;;;;;;5052635;28;20061;-72
2023/06/24 06:51:31;;;;;;;8.80;6.05;;;;;;;;;;4963829;28;20051;-71
2023/06/24 06:53:57;;;;;;;8.98;6.63;;;;;;;;;;5031159;28;20053;-71
2023/06/24 06:56:26;;;;;;;9.40;6.47;;;;;;;;;;4952609;28;20043;-71
2023/06/24 06:58:52;;;;;;;12.30;9.50;;;;;;;;;;5005535;28;20479;-71
2023/06/24 07:01:19;;;;;;;15.52;9.80;;;;;;;;;;4965990;28;20126;-71
2023/06/24 07:03:45;;;;;;;10.18;6.20;;;;;;;;;;4963804;28;20563;-72
2023/06/24 07:06:11;;;;;;;8.40;5.80;;;;;;;;;;4959830;28;20097;-72
2023/06/24 07:08:37;;;;;;;7.72;5.57;;;;;;;;;;4974684;28;20044;-71
2023/06/24 07:11:03;;;;;;;7.63;5.65;;;;;;;;;;4961482;28;20449;-72
2023/06/24 07:13:29;;;;;;;8.95;5.20;;;;;;;;;;4963333;28;20051;-71
2023/06/24 07:15:55;;;;;;;6.90;6.05;;;;;;;;;;5007008;28;20066;-71
2023/06/24 07:18:21;;;;;;;7.88;5.40;;;;;;;;;;4955400;28;20426;-71
2023/06/24 07:20:48;;;;;;;7.35;5.43;;;;;;;;;;4965691;28;20054;-71
2023/06/24 07:23:14;;;;;;;8.77;6.20;;;;;;;;;;4943533;28;20089;-71
2023/06/24 07:25:40;;;;;;;7.50;5.32;;;;;;;;;;4946335;28;20044;-71
2023/06/24 07:28:06;;;;;;;7.80;5.95;;;;;;;;;;5035283;28;20047;-72
2023/06/24 07:30:32;;;;;;;7.53;5.65;;;;;;;;;;4957996;28;20051;-71
2023/06/24 07:32:58;;;;;;;8.02;5.80;;;;;;;;;;5021237;28;20082;-71
2023/06/24 07:35:24;;;;;;;8.07;5.45;;;;;;;;;;5001626;28;20074;-72
2023/06/24 07:37:50;;;;;;;8.05;5.05;;;;;;;;;;4992470;28;20048;-72
2023/06/24 07:40:16;;;;;;;9.15;5.93;;;;;;;;;;5024734;28;20066;-71
2023/06/24 07:42:42;;;;;;;9.27;6.20;;;;;;;;;;4946976;28;20636;-72
2023/06/24 07:45:09;;;;;;;13.00;9.88;;;;;;;;;;5008226;28;20438;-72
2023/06/24 07:47:35;;;;;;;13.32;9.48;;;;;;;;;;4948978;28;20492;-71
2023/06/24 07:50:01;;;;;;;7.65;5.45;;;;;;;;;;4954784;28;20109;-71
2023/06/24 07:52:27;;;;;;;8.13;5.13;;;;;;;;;;4967709;28;20090;-72
2023/06/24 07:54:53;;;;;;;10.70;6.18;;;;;;;;;;4953528;28;20082;-72
2023/06/24 07:57:19;;;;;;;9.73;6.03;;;;;;;;;;4950989;28;20044;-71
2023/06/24 07:59:45;;;;;;;9.80;6.70;;;;;;;;;;4969469;28;20506;-72
2023/06/24 08:02:11;;;;;;;9.32;6.45;;;;;;;;;;4994842;28;20047;-71
2023/06/24 08:04:37;;;;;;;10.05;6.45;;;;;;;;;;5006441;28;20479;-71
2023/06/24 08:07:04;;;;;;;9.68;6.50;;;;;;;;;;4945453;28;20039;-71
2023/06/24 08:09:30;;;;;;;9.32;7.15;;;;;;;;;;4953044;28;20467;-71
2023/06/24 08:11:56;;;;;;;9.50;6.43;;;;;;;;;;4962571;28;20043;-71
2023/06/24 08:14:22;;;;;;;8.40;6.40;;;;;;;;;;4952579;28;20062;-71
2023/06/24 08:16:48;;;;;;;9.80;6.82;;;;;;;;;;4956448;28;20491;-71
2023/06/24 08:19:14;;;;;;;13.18;7.25;;;;;;;;;;4951378;28;20062;-71
2023/06/24 08:21:40;;;;;;;12.68;6.95;;;;;;;;;;4954921;28;20040;-72
2023/06/24 08:24:07;;;;;;;12.63;7.18;;;;;;;;;;4963766;28;20054;-71
2023/06/24 08:26:33;;;;;;;14.00;8.10;;;;;;;;;;5009052;28;20117;-71
2023/06/24 08:28:59;;;;;;;11.80;8.18;;;;;;;;;;4943278;28;20101;-71
2023/06/24 08:31:25;;;;;;;14.15;8.02;;;;;;;;;;4995528;28;20035;-71
2023/06/24 08:33:55;;;;;;;11.38;7.40;;;;;;;;;;4957486;28;20055;-71
2023/06/24 08:36:24;;;;;;;11.20;8.18;;;;;;;;;;4949855;28;20040;-71
2023/06/24 08:38:50;;;;;;;12.02;8.82;;;;;;;;;;4951310;28;20054;-72
2023/06/24 08:41:16;;;;;;;13.13;7.78;;;;;;;;;;4936294;28;20055;-73
2023/06/24 08:43:43;;;;;;;12.60;8.40;;;;;;;;;;4954806;28;20055;-73
2023/06/24 08:46:09;;;;;;;12.73;8.30;;;;;;;;;;4953876;28;20047;-73
2023/06/24 08:48:40;;;;;;;16.30;9.43;;;;;;;;;;4953439;28;20052;-72
2023/06/24 08:51:07;;;;;;;14.95;9.05;;;;;;;;;;4953184;28;20054;-74
2023/06/24 08:53:34;;;;;;;13.05;7.60;;;;;;;;;;4989486;28;20093;-74
2023/06/24 08:56:00;;;;;;;11.23;6.13;;;;;;;;;;5021241;28;20049;-73
2023/06/24 08:58:27;;;;;;;9.27;6.03;;;;;;;;;;5000671;28;20487;-72
2023/06/24 09:00:53;;;;;;;13.32;5.95;;;;;;;;;;5001895;28;20093;-73
2023/06/24 09:03:19;;;;;;;9.27;6.35;;;;;;;;;;4948407;28;20076;-75
2023/06/24 09:05:45;;;;;;;10.68;5.90;;;;;;;;;;4960796;28;20138;-72
2023/06/24 09:08:11;;;;;;;10.40;6.47;;;;;;;;;;4951801;28;20122;-73
2023/06/24 09:10:38;;;;;;;12.45;9.23;;;;;;;;;;4951946;28;20051;-73
2023/06/24 09:13:05;;;;;;;14.82;10.52;;;;;;;;;;4958092;28;20059;-72
2023/06/24 09:15:32;;;;;;;10.75;6.47;;;;;;;;;;4949431;28;20071;-72
2023/06/24 09:18:00;;;;;;;9.07;6.20;;;;;;;;;;4976746;28;20045;-72
2023/06/24 09:20:26;;;;;;;8.60;6.40;;;;;;;;;;4949945;28;20108;-72
2023/06/24 09:22:52;;;;;;;7.85;5.68;;;;;;;;;;5011798;28;20097;-72
2023/06/24 09:25:18;;;;;;;10.60;6.13;;;;;;;;;;5013576;28;20056;-71
2023/06/24 09:27:55;;;;;;;9.88;6.45;;;;;;;;;;5004688;28;20082;-72
2023/06/24 09:30:28;;;;;;;10.48;6.50;;;;;;;;;;4945820;28;20380;-74
2023/06/24 09:32:54;;;;;;;12.75;6.60;;;;;;;;;;4979780;28;20097;-77
2023/06/24 09:35:21;;;;;;;9.52;6.22;;;;;;;;;;4994796;28;20051;-72
2023/06/24 09:37:54;;;;;;;8.88;6.03;;;;;;;;;;4945934;28;20050;-75
2023/06/24 09:40:20;;;;;;;10.00;6.55;;;;;;;;;;4947705;28;20104;-79
2023/06/24 09:42:53;;;;;;;9.15;6.63;;;;;;;;;;5048213;28;20080;-72
2023/06/24 09:45:29;;;;;;;12.05;6.70;;;;;;;;;;5041350;28;20110;-73
2023/06/24 09:47:55;;;;;;;10.50;6.28;;;;;;;;;;5064400;28;20045;-74
2023/06/24 09:50:21;;;;;;;8.35;6.10;;;;;;;;;;5042478;28;20076;-73
2023/06/24 09:52:49;;;;;;;10.10;6.68;;;;;;;;;;5029959;28;20084;-74
2023/06/24 09:55:15;;;;;;;9.15;6.75;;;;;;;;;;5045709;28;20048;-72
2023/06/24 09:57:51;;;;;;;8.82;6.85;;;;;;;;;;5037614;28;20213;-73
2023/06/24 10:00:19;;;;;;;8.43;5.80;;;;;;;;;;5048758;28;20571;-72
2023/06/24 10:02:45;;;;;;;10.70;7.20;;;;;;;;;;5053743;28;20389;-73
2023/06/24 10:05:12;;;;;;;9.85;6.82;;;;;;;;;;5049961;28;20055;-72
2023/06/24 10:07:39;;;;;;;11.27;7.50;;;;;;;;;;5053648;28;20039;-72
2023/06/24 10:10:06;;;;;;;10.73;7.85;;;;;;;;;;5053098;28;20049;-73
2023/06/24 10:12:32;;;;;;;13.90;7.32;;;;;;;;;;5046845;28;20048;-72
2023/06/24 10:14:59;;;;;;;11.40;7.40;;;;;;;;;;5052051;28;21265;-73
2023/06/24 10:17:25;;;;;;;10.30;7.10;;;;;;;;;;5043066;28;20096;-72
2023/06/24 10:19:54;;;;;;;11.40;7.20;;;;;;;;;;5076483;28;20546;-73
2023/06/24 10:22:23;;;;;;;13.13;7.03;;;;;;;;;;5037861;28;20052;-73
2023/06/24 10:24:51;;;;;;;10.48;6.78;;;;;;;;;;5028174;28;20064;-72
2023/06/24 10:27:29;;;;;;;9.65;6.63;;;;;;;;;;5044142;28;20048;-73
2023/06/24 10:29:56;;;;;;;12.95;7.25;;;;;;;;;;5032461;28;20053;-72
2023/06/24 10:32:22;;;;;;;11.38;7.85;;;;;;;;;;5028240;28;20049;-72
2023/06/24 10:34:55;;;;;;;8.73;6.68;;;;;;;;;;5054009;28;20060;-73
2023/06/24 10:37:24;;;;;;;11.47;7.20;;;;;;;;;;5052149;28;20059;-72
2023/06/24 10:39:57;;;;;;;9.82;7.03;;;;;;;;;;5036312;28;20713;-73
2023/06/24 10:42:41;;;;;;;8.63;6.07;;;;;;;;;;4970437;28;20090;-72
2023/06/24 10:45:10;;;;;;;6.75;5.43;;;;;;;;;;4941227;28;20405;-72
2023/06/24 10:47:36;;;;;;;8.93;6.28;;;;;;;;;;4962868;28;20121;-72
2023/06/24 10:50:03;;;;;;;9.65;6.28;;;;;;;;;;5010210;28;20105;-72
2023/06/24 10:52:29;;;;;;;10.07;6.40;;;;;;;;;;5019228;28;20036;-73
2023/06/24 10:54:57;;;;;;;8.68;6.43;;;;;;;;;;4938115;28;20586;-72
2023/06/24 10:57:27;;;;;;;9.65;6.70;;;;;;;;;;4942996;28;20078;-73
2023/06/24 10:59:54;;;;;;;10.85;6.55;;;;;;;;;;5012142;28;20424;-70
2023/06/24 11:02:21;;;;;;;9.23;6.25;;;;;;;;;;5002203;28;20051;-71
2023/06/24 11:04:47;;;;;;;8.88;6.68;;;;;;;;;;5010680;28;20047;-70
2023/06/24 11:07:14;;;;;;;8.88;6.40;;;;;;;;;;4943767;28;20051;-74
2023/06/24 11:09:43;;;;;;;10.65;6.72;;;;;;;;;;4940105;28;20039;-72
2023/06/24 11:12:10;;;;;;;10.38;6.20;;;;;;;;;;5019912;28;20050;-72
2023/06/24 11:14:36;;;;;;;10.95;7.38;;;;;;;;;;4942553;28;20043;-72
2023/06/24 11:17:03;;;;;;;8.15;5.90;;;;;;;;;;4952903;28;20057;-72
2023/06/24 11:19:33;;;;;;;11.65;6.95;;;;;;;;;;5010409;28;20097;-73
2023/06/24 11:22:00;;;;;;;10.90;7.00;;;;;;;;;;5003640;28;20439;-72
2023/06/24 11:24:26;;;;;;;8.57;6.63;;;;;;;;;;5003684;28;20100;-73
2023/06/24 11:26:52;;;;;;;10.38;7.60;;;;;;;;;;5036171;28;20066;-73
2023/06/24 11:29:18;;;;;;;8.02;6.47;;;;;;;;;;4964711;28;20047;-73
2023/06/24 11:31:45;;;;;;;10.80;7.10;;;;;;;;;;4997912;28;20047;-73
2023/06/24 11:34:11;;;;;;;12.63;8.40;;;;;;;;;;5025516;28;20381;-72
2023/06/24 11:36:37;;;;;;;9.65;6.93;;;;;;;;;;4931167;28;20054;-72
2023/06/24 11:39:03;;;;;;;12.43;8.35;;;;;;;;;;4958343;28;20091;-73
2023/06/24 11:41:29;;;;;;;11.00;8.38;;;;;;;;;;4963521;28;20105;-73
2023/06/24 11:43:58;;;;;;;13.57;7.95;;;;;;;;;;4941567;28;20105;-74
2023/06/24 11:46:25;;;;;;;11.48;8.95;;;;;;;;;;4998021;28;20396;-73
2023/06/24 11:48:51;;;;;;;16.35;9.13;;;;;;;;;;5008808;28;20397;-74
2023/06/24 11:51:17;;;;;;;15.98;8.75;;;;;;;;;;5014968;28;20043;-75
2023/06/24 11:53:45;;;;;;;11.25;7.75;;;;;;;;;;4943197;28;20044;-73
2023/06/24 11:56:11;;;;;;;10.95;7.95;;;;;;;;;;4949866;28;20059;-74
2023/06/24 11:58:38;;;;;;;12.23;8.00;;;;;;;;;;4942079;29;20130;-73
2023/06/24 12:01:08;;;;;;;13.48;8.63;;;;;;;;;;4943502;28;20380;-73
2023/06/24 12:03:34;;;;;;;11.57;8.00;;;;;;;;;;5006620;28;20456;-74
2023/06/24 12:06:01;;;;;;;15.32;8.57;;;;;;;;;;4958360;28;20082;-74
2023/06/24 12:08:27;;;;;;;11.65;8.18;;;;;;;;;;4943260;28;20047;-73
2023/06/24 12:10:53;;;;;;;11.00;7.82;;;;;;;;;;4936137;28;20062;-74
2023/06/24 12:13:19;;;;;;;14.88;9.27;;;;;;;;;;4942233;28;20524;-74
2023/06/24 12:15:45;;;;;;;12.45;8.38;;;;;;;;;;4947442;28;20046;-75
2023/06/24 12:18:13;;;;;;;12.23;7.95;;;;;;;;;;4982157;28;20052;-74
2023/06/24 12:20:39;;;;;;;12.80;8.23;;;;;;;;;;4940420;28;20054;-73
2023/06/24 12:23:05;;;;;;;14.25;8.10;;;;;;;;;;4942126;28;20051;-73
2023/06/24 12:25:31;;;;;;;11.65;7.63;;;;;;;;;;4937032;28;20090;-73
2023/06/24 12:27:59;;;;;;;10.32;7.32;;;;;;;;;;4938215;28;20051;-73
2023/06/24 12:30:25;;;;;;;9.95;7.70;;;;;;;;;;5018129;28;20075;-73
2023/06/24 12:32:51;;;;;;;10.63;6.70;;;;;;;;;;4939545;28;20046;-73
2023/06/24 12:35:17;;;;;;;11.65;7.68;;;;;;;;;;4956768;28;20405;-73
2023/06/24 12:37:45;;;;;;;8.85;7.07;;;;;;;;;;4997007;28;20406;-73
2023/06/24 12:40:11;;;;;;;9.88;6.57;;;;;;;;;;4933916;28;20087;-73
2023/06/24 12:42:37;;;;;;;12.65;6.60;;;;;;;;;;5004719;28;20178;-73
2023/06/24 12:45:03;;;;;;;11.82;6.82;;;;;;;;;;5006558;28;20520;-73
2023/06/24 12:47:29;;;;;;;7.88;6.32;;;;;;;;;;4981257;28;20507;-73
2023/06/24 12:49:55;;;;;;;10.75;6.78;;;;;;;;;;4963018;28;20472;-74
2023/06/24 12:52:22;;;;;;;11.13;6.85;;;;;;;;;;5002747;28;20052;-74
2023/06/24 12:54:48;;;;;;;11.02;7.25;;;;;;;;;;4949710;29;20074;-73
2023/06/24 12:57:15;;;;;;;10.30;6.75;;;;;;;;;;4953010;28;20097;-73
2023/06/24 12:59:41;;;;;;;10.68;7.70;;;;;;;;;;4957331;28;20096;-74
2023/06/24 13:02:07;;;;;;;13.20;8.15;;;;;;;;;;4952389;28;20097;-73
2023/06/24 13:04:33;;;;;;;10.35;7.38;;;;;;;;;;4949531;28;20047;-73
2023/06/24 13:06:59;;;;;;;10.73;7.25;;;;;;;;;;5004353;28;20043;-72
2023/06/24 13:09:25;;;;;;;9.80;7.22;;;;;;;;;;4962276;28;20560;-73
2023/06/24 13:11:51;;;;;;;10.05;6.85;;;;;;;;;;4999304;28;20058;-73
2023/06/24 13:14:17;;;;;;;12.50;7.68;;;;;;;;;;5003932;28;20051;-72
2023/06/24 13:16:43;;;;;;;9.98;6.95;;;;;;;;;;5020097;28;20062;-74
2023/06/24 13:19:09;;;;;;;7.78;6.25;;;;;;;;;;5001818;28;20056;-72
2023/06/24 13:21:35;;;;;;;12.68;6.72;;;;;;;;;;4957483;28;20043;-72
2023/06/24 13:24:01;;;;;;;9.35;6.50;;;;;;;;;;4943421;28;20485;-70
2023/06/24 13:26:27;;;;;;;8.93;6.30;;;;;;;;;;4935569;28;20123;-71
2023/06/24 13:28:54;;;;;;;7.50;5.75;;;;;;;;;;5027665;28;20050;-71
2023/06/24 13:31:20;;;;;;;5.97;4.88;;;;;;;;;;4972129;28;20483;-70
2023/06/24 13:33:46;;;;;;;6.15;4.88;;;;;;;;;;4968383;28;20163;-71
2023/06/24 13:36:27;;;;;;;6.40;5.13;;;;;;;;;;5012242;28;20047;-71
2023/06/24 13:38:53;;;;;;;6.97;5.38;;;;;;;;;;4969289;28;20043;-71
2023/06/24 13:41:19;;;;;;;7.03;5.72;;;;;;;;;;5011723;28;20545;-72
2023/06/24 13:43:45;;;;;;;5.55;4.95;;;;;;;;;;5017949;28;20047;-71
2023/06/24 13:46:12;;;;;;;8.02;5.47;;;;;;;;;;5026822;28;20503;-71
2023/06/24 13:48:38;;;;;;;7.88;5.88;;;;;;;;;;5008901;28;20087;-71
2023/06/24 13:51:04;;;;;;;6.78;5.45;;;;;;;;;;4946777;28;20054;-72
2023/06/24 13:53:30;;;;;;;9.15;6.90;;;;;;;;;;4939357;28;20391;-71
2023/06/24 13:55:56;;;;;;;8.57;6.05;;;;;;;;;;4949900;28;20506;-71
2023/06/24 13:58:22;;;;;;;6.40;5.50;;;;;;;;;;4947883;28;20055;-72
2023/06/24 14:00:48;;;;;;;6.55;5.32;;;;;;;;;;4946720;28;20039;-71
2023/06/24 14:03:14;;;;;;;6.72;5.20;;;;;;;;;;4948334;28;20047;-71
2023/06/24 14:05:40;;;;;;;5.97;4.10;;;;;;;;;;4945817;28;20479;-71
2023/06/24 14:08:06;;;;;;;5.38;4.30;;;;;;;;;;4950700;28;20051;-71
2023/06/24 14:10:32;;;;;;;11.73;7.85;;;;;;;;;;4951556;28;20050;-71
2023/06/24 14:12:58;;;;;;;5.70;4.53;;;;;;;;;;5021601;28;20042;-71
2023/06/24 14:15:24;;;;;;;5.38;4.60;;;;;;;;;;4951531;28;20498;-74
2023/06/24 14:17:50;;;;;;;4.80;4.35;;;;;;;;;;4955592;28;20036;-74
2023/06/24 14:20:16;;;;;;;4.22;3.75;;;;;;;;;;4968779;28;20043;-69
2023/06/24 14:22:42;;;;;;;5.70;4.00;;;;;;;;;;5010773;28;20038;-70
2023/06/24 14:25:08;;;;;;;6.07;3.60;;;;;;;;;;5014707;28;20050;-70
2023/06/24 14:27:34;;;;;;;4.10;3.40;;;;;;;;;;4948986;28;20491;-70
2023/06/24 14:30:00;;;;;;;3.30;3.00;;;;;;;;;;4969312;28;20133;-70